createdAt,value
2017-08-24T00:01:53.986Z,18.50
2017-08-24T00:04:23.907Z,18.50
2017-08-24T00:06:52.851Z,18.50
2017-08-24T00:09:21.795Z,18.50
2017-08-24T00:11:50.762Z,18.50
2017-08-24T00:14:19.706Z,18.50
2017-08-24T00:16:48.679Z,18.50
2017-08-24T00:19:17.628Z,18.40
2017-08-24T00:21:46.572Z,18.40
2017-08-24T00:24:15.541Z,18.30
2017-08-24T00:26:44.474Z,18.30
2017-08-24T00:29:14.424Z,18.40
2017-08-24T00:31:43.372Z,18.40
2017-08-24T00:34:12.328Z,18.40
2017-08-24T00:36:41.275Z,18.40
2017-08-24T00:39:10.224Z,18.30
2017-08-24T00:41:39.191Z,18.30
2017-08-24T00:44:08.139Z,18.30
2017-08-24T00:46:37.087Z,18.30
2017-08-24T00:49:06.043Z,18.30
2017-08-24T00:51:34.986Z,18.30
2017-08-24T00:54:03.955Z,18.30
2017-08-24T00:56:32.919Z,18.30
2017-08-24T00:59:01.872Z,18.30
2017-08-24T01:01:30.827Z,18.20
2017-08-24T01:03:59.955Z,18.20
2017-08-24T01:06:28.924Z,18.20
2017-08-24T01:08:57.916Z,18.20
2017-08-24T01:11:30.791Z,18.30
2017-08-24T01:13:59.819Z,18.20
2017-08-24T01:16:28.772Z,18.30
2017-08-24T01:18:57.739Z,18.30
2017-08-24T01:21:26.676Z,18.30
2017-08-24T01:23:55.627Z,18.30
2017-08-24T01:26:24.583Z,18.20
2017-08-24T01:28:53.528Z,18.20
2017-08-24T01:31:22.479Z,18.10
2017-08-24T01:33:51.426Z,18.10
2017-08-24T01:36:20.491Z,18.10
2017-08-24T01:38:49.439Z,18.10
2017-08-24T01:41:18.383Z,18.10
2017-08-24T01:43:47.352Z,18.10
2017-08-24T01:46:25.123Z,18.10
2017-08-24T01:48:54.079Z,18.10
2017-08-24T01:51:23.031Z,18.10
2017-08-24T01:53:51.978Z,18.10
2017-08-24T01:56:20.934Z,18.00
2017-08-24T01:58:49.882Z,18.10
2017-08-24T02:01:18.849Z,18.10
2017-08-24T02:03:47.799Z,18.10
2017-08-24T02:06:16.735Z,18.10
2017-08-24T02:08:45.689Z,18.10
2017-08-24T02:11:14.631Z,18.10
2017-08-24T02:13:43.603Z,18.10
2017-08-24T02:16:12.548Z,18.10
2017-08-24T02:18:41.492Z,18.10
2017-08-24T02:21:10.443Z,18.00
2017-08-24T02:23:39.386Z,18.00
2017-08-24T02:26:08.361Z,18.00
2017-08-24T02:28:37.311Z,18.00
2017-08-24T02:31:06.254Z,18.00
2017-08-24T02:33:35.205Z,18.00
2017-08-24T02:36:04.152Z,18.00
2017-08-24T02:38:33.115Z,18.00
2017-08-24T02:41:02.063Z,18.00
2017-08-24T02:43:31.007Z,18.00
2017-08-24T02:45:59.963Z,18.00
2017-08-24T02:48:28.915Z,18.10
2017-08-24T02:50:57.883Z,18.00
2017-08-24T02:53:26.839Z,18.00
2017-08-24T02:55:55.786Z,18.00
2017-08-24T02:58:25.643Z,18.00
2017-08-24T03:00:54.592Z,18.00
2017-08-24T03:03:23.563Z,17.90
2017-08-24T03:05:52.522Z,17.90
2017-08-24T03:08:21.459Z,17.90
2017-08-24T03:10:50.411Z,17.90
2017-08-24T03:13:19.359Z,17.80
2017-08-24T03:15:48.314Z,17.80
2017-08-24T03:18:17.266Z,17.70
2017-08-24T03:20:46.223Z,17.70
2017-08-24T03:23:15.200Z,17.80
2017-08-24T03:25:44.151Z,17.70
2017-08-24T03:28:13.099Z,17.60
2017-08-24T03:30:42.048Z,17.60
2017-08-24T03:33:11.021Z,17.60
2017-08-24T03:35:39.959Z,17.60
2017-08-24T03:38:08.915Z,17.50
2017-08-24T03:40:37.863Z,17.50
2017-08-24T03:43:06.812Z,17.50
2017-08-24T03:45:35.778Z,17.50
2017-08-24T03:48:04.722Z,17.50
2017-08-24T03:50:33.678Z,17.50
2017-08-24T03:53:02.631Z,17.50
2017-08-24T03:55:31.607Z,17.40
2017-08-24T03:58:00.554Z,17.40
2017-08-24T04:00:29.502Z,17.40
2017-08-24T04:03:01.467Z,17.50
2017-08-24T04:05:30.418Z,17.40
2017-08-24T04:07:59.374Z,17.40
2017-08-24T04:10:29.096Z,17.40
2017-08-24T04:12:58.207Z,17.40
2017-08-24T04:15:27.156Z,17.40
2017-08-24T04:17:56.099Z,17.40
2017-08-24T04:20:25.064Z,17.40
2017-08-24T04:22:54.016Z,17.40
2017-08-24T04:25:22.972Z,17.40
2017-08-24T04:27:51.929Z,17.40
2017-08-24T04:30:20.912Z,17.40
2017-08-24T04:32:49.859Z,17.40
2017-08-24T04:35:18.807Z,17.40
2017-08-24T04:37:47.759Z,17.40
2017-08-24T04:40:16.718Z,17.40
2017-08-24T04:42:45.658Z,17.40
2017-08-24T04:45:14.602Z,17.40
2017-08-24T04:47:43.563Z,17.40
2017-08-24T04:50:12.515Z,17.40
2017-08-24T04:52:41.479Z,17.40
2017-08-24T04:55:10.435Z,17.50
2017-08-24T04:57:39.387Z,17.50
2017-08-24T05:00:08.347Z,17.50
2017-08-24T05:02:38.118Z,17.50
2017-08-24T05:05:07.087Z,17.60
2017-08-24T05:07:36.038Z,17.60
2017-08-24T05:10:05.917Z,17.60
2017-08-24T05:12:34.871Z,17.70
2017-08-24T05:15:03.818Z,17.70
2017-08-24T05:17:32.791Z,17.80
2017-08-24T05:20:01.740Z,17.80
2017-08-24T05:22:30.690Z,17.90
2017-08-24T05:24:59.661Z,18.00
2017-08-24T05:27:28.620Z,18.10
2017-08-24T05:29:57.642Z,18.10
2017-08-24T05:32:26.599Z,18.20
2017-08-24T05:34:55.556Z,18.20
2017-08-24T05:37:24.522Z,18.30
2017-08-24T05:39:53.476Z,18.30
2017-08-24T05:42:22.767Z,18.30
2017-08-24T05:44:51.751Z,18.40
2017-08-24T05:47:20.698Z,18.50
2017-08-24T05:49:50.615Z,18.60
2017-08-24T05:52:19.598Z,18.70
2017-08-24T05:54:48.584Z,18.80
2017-08-24T05:57:17.664Z,18.90
2017-08-24T05:59:46.615Z,19.00
2017-08-24T06:02:15.704Z,19.10
2017-08-24T06:04:44.690Z,19.20
2017-08-24T06:07:13.795Z,19.30
2017-08-24T06:09:42.787Z,19.50
2017-08-24T06:12:11.751Z,19.60
2017-08-24T06:14:40.800Z,19.70
2017-08-24T06:17:09.747Z,19.80
2017-08-24T06:19:38.730Z,20.00
2017-08-24T06:22:07.689Z,20.00
2017-08-24T06:24:36.632Z,20.20
2017-08-24T06:27:05.591Z,20.30
2017-08-24T06:29:34.544Z,20.40
2017-08-24T06:32:03.512Z,20.40
2017-08-24T06:34:32.463Z,20.60
2017-08-24T06:37:01.451Z,20.70
2017-08-24T06:39:30.400Z,20.90
2017-08-24T06:41:59.356Z,21.10
2017-08-24T06:44:28.315Z,21.30
2017-08-24T06:46:57.267Z,21.60
2017-08-24T06:49:26.223Z,21.80
2017-08-24T06:51:55.171Z,22.10
2017-08-24T06:54:24.139Z,22.30
2017-08-24T06:56:53.099Z,22.50
2017-08-24T06:59:22.060Z,22.80
2017-08-24T07:01:51.415Z,23.00
2017-08-24T07:04:20.362Z,23.20
2017-08-24T07:06:49.315Z,23.60
2017-08-24T07:09:18.319Z,23.80
2017-08-24T07:11:47.509Z,24.00
2017-08-24T07:14:17.396Z,24.30
2017-08-24T07:16:46.927Z,24.60
2017-08-24T07:19:15.888Z,24.80
2017-08-24T07:21:44.844Z,25.00
2017-08-24T07:24:13.802Z,25.20
2017-08-24T07:26:42.759Z,25.40
2017-08-24T07:29:11.732Z,25.60
2017-08-24T07:31:40.683Z,25.60
2017-08-24T07:34:09.663Z,25.70
2017-08-24T07:36:38.607Z,25.80
2017-08-24T07:39:07.571Z,26.00
2017-08-24T07:41:36.561Z,26.00
2017-08-24T07:44:05.523Z,26.10
2017-08-24T07:46:34.486Z,26.20
2017-08-24T07:49:03.448Z,26.30
2017-08-24T07:51:32.441Z,26.20
2017-08-24T07:54:01.430Z,26.40
2017-08-24T07:56:30.431Z,26.60
2017-08-24T07:58:59.388Z,26.80
2017-08-24T08:01:28.351Z,26.90
2017-08-24T08:03:57.308Z,26.90
2017-08-24T08:06:26.319Z,27.00
2017-08-24T08:08:55.275Z,27.10
2017-08-24T08:11:24.238Z,27.20
2017-08-24T08:13:53.433Z,27.50
2017-08-24T08:16:22.475Z,27.60
2017-08-24T08:18:51.431Z,27.80
2017-08-24T08:21:20.479Z,27.90
2017-08-24T08:23:49.431Z,27.90
2017-08-24T08:26:18.403Z,27.90
2017-08-24T08:28:47.364Z,27.90
2017-08-24T08:31:16.338Z,28.00
2017-08-24T08:33:45.299Z,28.20
2017-08-24T08:36:14.260Z,28.30
2017-08-24T08:38:43.223Z,28.60
2017-08-24T08:41:12.180Z,28.90
2017-08-24T08:43:41.157Z,29.20
2017-08-24T08:46:10.126Z,29.20
2017-08-24T08:48:39.107Z,28.90
2017-08-24T08:51:08.066Z,28.90
2017-08-24T08:53:37.035Z,28.90
2017-08-24T08:56:06.019Z,29.10
2017-08-24T08:58:34.973Z,29.10
2017-08-24T09:01:03.932Z,29.10
2017-08-24T09:03:32.900Z,29.20
2017-08-24T09:06:01.867Z,29.40
2017-08-24T09:08:30.855Z,29.60
2017-08-24T09:10:59.815Z,29.70
2017-08-24T09:13:28.985Z,29.70
2017-08-24T09:15:58.473Z,29.40
2017-08-24T09:18:27.468Z,29.30
2017-08-24T09:20:56.447Z,29.50
2017-08-24T09:23:25.793Z,29.80
2017-08-24T09:25:54.937Z,29.90
2017-08-24T09:28:23.910Z,30.10
2017-08-24T09:30:52.871Z,30.20
2017-08-24T09:33:21.843Z,30.20
2017-08-24T09:35:50.835Z,30.10
2017-08-24T09:38:19.918Z,30.20
2017-08-24T09:40:48.881Z,30.50
2017-08-24T09:43:17.858Z,30.80
2017-08-24T09:45:46.842Z,30.90
2017-08-24T09:48:15.844Z,30.90
2017-08-24T09:50:45.009Z,30.50
2017-08-24T09:53:13.964Z,30.30
2017-08-24T09:55:42.994Z,30.00
2017-08-24T09:58:11.976Z,29.70
2017-08-24T10:00:40.932Z,29.50
2017-08-24T10:03:10.106Z,29.30
2017-08-24T10:05:39.163Z,29.20
2017-08-24T10:08:08.127Z,29.10
2017-08-24T10:10:37.089Z,29.30
2017-08-24T10:13:06.039Z,29.60
2017-08-24T10:15:35.003Z,29.90
2017-08-24T10:18:03.963Z,30.40
2017-08-24T10:20:32.931Z,30.70
2017-08-24T10:23:01.890Z,31.20
2017-08-24T10:25:30.846Z,31.60
2017-08-24T10:27:59.816Z,31.50
2017-08-24T10:30:29.978Z,31.80
2017-08-24T10:32:58.923Z,32.50
2017-08-24T10:35:28.023Z,32.90
2017-08-24T10:37:56.980Z,33.60
2017-08-24T10:40:25.948Z,34.30
2017-08-24T10:42:54.896Z,35.00
2017-08-24T10:45:23.884Z,35.40
2017-08-24T10:47:53.792Z,35.90
2017-08-24T10:50:22.742Z,36.60
2017-08-24T10:52:51.706Z,36.60
2017-08-24T10:55:20.663Z,36.30
2017-08-24T10:57:49.642Z,35.70
2017-08-24T11:00:18.596Z,35.00
2017-08-24T11:02:47.540Z,34.50
2017-08-24T11:05:16.500Z,34.50
2017-08-24T11:07:45.447Z,34.50
2017-08-24T11:10:14.424Z,34.60
2017-08-24T11:12:45.316Z,34.80
2017-08-24T11:15:14.297Z,35.20
2017-08-24T11:17:43.306Z,35.70
2017-08-24T11:20:12.279Z,36.20
2017-08-24T11:22:41.396Z,36.80
2017-08-24T11:25:10.364Z,37.50
2017-08-24T11:27:39.385Z,37.80
2017-08-24T11:30:08.327Z,38.00
2017-08-24T11:32:37.272Z,38.30
2017-08-24T11:35:06.305Z,38.70
2017-08-24T11:37:37.179Z,39.20
2017-08-24T11:40:06.164Z,39.80
2017-08-24T11:42:35.119Z,40.20
2017-08-24T11:45:04.115Z,39.90
2017-08-24T11:47:33.035Z,39.10
2017-08-24T11:50:02.015Z,38.50
2017-08-24T11:52:30.993Z,38.40
2017-08-24T11:54:59.944Z,38.50
2017-08-24T11:57:28.891Z,38.80
2017-08-24T11:59:57.846Z,39.20
2017-08-24T12:02:26.799Z,39.90
2017-08-24T12:04:55.781Z,40.50
2017-08-24T12:07:24.731Z,40.70
2017-08-24T12:09:53.682Z,40.30
2017-08-24T12:12:22.640Z,39.80
2017-08-24T12:14:51.591Z,39.90
2017-08-24T12:17:20.573Z,40.20
2017-08-24T12:19:49.526Z,40.30
2017-08-24T12:22:18.487Z,40.50
2017-08-24T12:24:47.455Z,40.10
2017-08-24T12:27:16.408Z,39.80
2017-08-24T12:29:49.804Z,39.60
2017-08-24T12:32:18.752Z,39.50
2017-08-24T12:34:47.708Z,39.80
2017-08-24T12:37:16.664Z,39.80
2017-08-24T12:39:45.627Z,40.00
2017-08-24T12:42:14.607Z,40.30
2017-08-24T12:44:43.560Z,40.60
2017-08-24T12:47:12.508Z,40.90
2017-08-24T12:49:41.459Z,41.20
2017-08-24T12:52:10.411Z,41.30
2017-08-24T12:54:39.390Z,41.50
2017-08-24T12:57:08.347Z,41.90
2017-08-24T12:59:37.295Z,42.40
2017-08-24T13:02:06.251Z,42.50
2017-08-24T13:04:35.208Z,42.50
2017-08-24T13:07:04.180Z,42.30
2017-08-24T13:09:33.133Z,42.60
2017-08-24T13:12:02.079Z,43.10
2017-08-24T13:14:31.031Z,43.60
2017-08-24T13:16:59.983Z,44.10
2017-08-24T13:19:28.963Z,44.30
2017-08-24T13:21:57.915Z,44.30
2017-08-24T13:24:26.864Z,44.30
2017-08-24T13:26:55.887Z,44.00
2017-08-24T13:29:24.835Z,43.60
2017-08-24T13:31:53.783Z,42.90
2017-08-24T13:34:22.754Z,42.50
2017-08-24T13:36:51.708Z,42.30
2017-08-24T13:39:20.655Z,41.90
2017-08-24T13:41:49.644Z,41.20
2017-08-24T13:44:18.594Z,40.40
2017-08-24T13:46:47.534Z,40.20
2017-08-24T13:49:16.507Z,40.20
2017-08-24T13:51:45.459Z,40.30
2017-08-24T13:54:14.410Z,40.60
2017-08-24T13:56:43.372Z,40.90
2017-08-24T13:59:12.323Z,41.30
2017-08-24T14:01:41.267Z,41.50
2017-08-24T14:04:10.223Z,41.60
2017-08-24T14:06:39.166Z,41.80
2017-08-24T14:09:08.131Z,42.00
2017-08-24T14:11:37.092Z,42.10
2017-08-24T14:14:06.043Z,42.20
2017-08-24T14:16:34.994Z,42.30
2017-08-24T14:19:03.943Z,42.40
2017-08-24T14:21:32.906Z,42.50
2017-08-24T14:24:01.868Z,42.70
2017-08-24T14:26:30.820Z,42.70
2017-08-24T14:28:59.781Z,42.90
2017-08-24T14:31:28.736Z,43.10
2017-08-24T14:33:58.411Z,43.00
2017-08-24T14:36:27.360Z,42.80
2017-08-24T14:38:56.326Z,42.60
2017-08-24T14:41:25.284Z,42.50
2017-08-24T14:43:54.236Z,42.20
2017-08-24T14:46:23.215Z,41.70
2017-08-24T14:48:52.173Z,40.90
2017-08-24T14:51:21.127Z,40.10
2017-08-24T14:53:50.083Z,39.40
2017-08-24T14:56:19.028Z,38.70
2017-08-24T14:58:48.013Z,38.10
2017-08-24T15:01:16.974Z,37.60
2017-08-24T15:03:45.911Z,37.40
2017-08-24T15:06:14.867Z,37.30
2017-08-24T15:08:43.819Z,37.20
2017-08-24T15:11:12.796Z,37.20
2017-08-24T15:13:41.739Z,36.90
2017-08-24T15:16:10.682Z,36.50
2017-08-24T15:18:39.651Z,36.00
2017-08-24T15:21:08.591Z,35.70
2017-08-24T15:23:37.564Z,35.60
2017-08-24T15:26:06.521Z,35.50
2017-08-24T15:28:35.476Z,35.60
2017-08-24T15:31:04.436Z,35.50
2017-08-24T15:33:33.386Z,35.50
2017-08-24T15:36:02.362Z,35.40
2017-08-24T15:38:31.321Z,35.20
2017-08-24T15:41:00.267Z,35.00
2017-08-24T15:43:29.231Z,34.90
2017-08-24T15:45:58.183Z,34.60
2017-08-24T15:48:27.154Z,34.30
2017-08-24T15:50:56.105Z,34.10
2017-08-24T15:53:25.043Z,33.90
2017-08-24T15:55:54.002Z,33.70
2017-08-24T15:58:22.951Z,33.50
2017-08-24T16:00:51.919Z,33.20
2017-08-24T16:03:20.871Z,33.00
2017-08-24T16:05:49.819Z,32.80
2017-08-24T16:08:18.786Z,32.60
2017-08-24T16:10:47.735Z,32.50
2017-08-24T16:13:16.709Z,32.30
2017-08-24T16:15:45.660Z,32.20
2017-08-24T16:18:14.611Z,32.00
2017-08-24T16:20:43.568Z,31.90
2017-08-24T16:23:12.523Z,31.80
2017-08-24T16:25:41.502Z,31.70
2017-08-24T16:28:10.447Z,31.50
2017-08-24T16:30:39.404Z,31.30
2017-08-24T16:33:08.412Z,31.10
2017-08-24T16:35:37.369Z,30.80
2017-08-24T16:38:06.339Z,30.60
2017-08-24T16:40:35.292Z,30.30
2017-08-24T16:43:04.244Z,30.10
2017-08-24T16:45:33.200Z,29.90
2017-08-24T16:48:02.144Z,29.70
2017-08-24T16:50:31.120Z,29.50
2017-08-24T16:53:00.071Z,29.40
2017-08-24T16:55:29.020Z,29.20
2017-08-24T16:57:57.975Z,29.00
2017-08-24T17:00:26.924Z,28.80
2017-08-24T17:02:55.899Z,28.70
2017-08-24T17:05:24.857Z,28.50
2017-08-24T17:07:53.814Z,28.40
2017-08-24T17:10:22.766Z,28.30
2017-08-24T17:12:51.728Z,28.20
2017-08-24T17:15:20.700Z,28.10
2017-08-24T17:17:49.647Z,28.00
2017-08-24T17:20:18.599Z,27.80
2017-08-24T17:22:47.567Z,27.70
2017-08-24T17:25:16.530Z,27.60
2017-08-24T17:27:45.498Z,27.60
2017-08-24T17:30:14.450Z,27.50
2017-08-24T17:32:43.403Z,27.30
2017-08-24T17:35:12.370Z,27.10
2017-08-24T17:37:41.324Z,27.00
2017-08-24T17:40:10.347Z,26.90
2017-08-24T17:42:39.319Z,26.80
2017-08-24T17:45:08.277Z,26.70
2017-08-24T17:47:37.236Z,26.60
2017-08-24T17:50:06.199Z,26.40
2017-08-24T17:52:35.156Z,26.20
2017-08-24T17:55:04.100Z,26.10
2017-08-24T17:57:33.056Z,25.90
2017-08-24T18:00:02.027Z,25.80
2017-08-24T18:02:30.975Z,25.70
2017-08-24T18:04:59.927Z,25.60
2017-08-24T18:07:28.904Z,25.50
2017-08-24T18:09:57.859Z,25.40
2017-08-24T18:12:26.806Z,25.30
2017-08-24T18:14:55.775Z,25.20
2017-08-24T18:17:24.728Z,25.10
2017-08-24T18:19:53.681Z,25.00
2017-08-24T18:22:22.668Z,25.00
2017-08-24T18:24:51.623Z,24.90
2017-08-24T18:27:20.573Z,24.70
2017-08-24T18:29:49.548Z,24.70
2017-08-24T18:32:18.496Z,24.50
2017-08-24T18:34:47.448Z,24.50
2017-08-24T18:37:16.427Z,24.50
2017-08-24T18:39:45.368Z,24.50
2017-08-24T18:42:14.307Z,24.50
2017-08-24T18:44:45.227Z,24.40
2017-08-24T18:47:14.175Z,24.40
2017-08-24T18:49:43.175Z,24.30
2017-08-24T18:52:12.090Z,24.30
2017-08-24T18:54:41.039Z,24.30
2017-08-24T18:57:09.996Z,24.20
2017-08-24T18:59:38.944Z,24.10
2017-08-24T19:02:07.926Z,24.00
2017-08-24T19:04:36.877Z,23.90
2017-08-24T19:07:05.827Z,23.90
2017-08-24T19:09:34.797Z,23.80
2017-08-24T19:12:03.752Z,23.90
2017-08-24T19:14:32.731Z,23.90
2017-08-24T19:17:01.684Z,24.00
2017-08-24T19:19:30.636Z,23.90
2017-08-24T19:22:00.996Z,23.90
2017-08-24T19:24:30.221Z,24.00
2017-08-24T19:26:59.203Z,24.00
2017-08-24T19:29:28.151Z,24.00
2017-08-24T19:31:57.115Z,23.90
2017-08-24T19:34:28.023Z,23.80
2017-08-24T19:36:57.937Z,23.80
2017-08-24T19:39:26.902Z,23.60
2017-08-24T19:41:55.861Z,23.60
2017-08-24T19:44:24.906Z,23.50
2017-08-24T19:46:53.880Z,23.30
2017-08-24T19:49:22.833Z,23.30
2017-08-24T19:51:51.823Z,23.20
2017-08-24T19:54:20.776Z,23.10
2017-08-24T19:56:49.725Z,23.10
2017-08-24T19:59:19.604Z,23.00
2017-08-24T20:01:51.435Z,23.00
2017-08-24T20:04:20.599Z,23.00
2017-08-24T20:06:49.563Z,22.90
2017-08-24T20:09:19.448Z,22.80
2017-08-24T20:11:48.747Z,22.70
2017-08-24T20:14:17.757Z,22.60
2017-08-24T20:16:46.814Z,22.50
2017-08-24T20:19:15.887Z,22.40
2017-08-24T20:21:46.182Z,22.40
2017-08-24T20:24:15.160Z,22.30
2017-08-24T20:26:44.917Z,22.20
2017-08-24T20:29:13.859Z,22.10
2017-08-24T20:31:42.803Z,22.00
2017-08-24T20:34:11.775Z,22.00
2017-08-24T20:36:41.092Z,21.90
2017-08-24T20:39:11.455Z,21.90
2017-08-24T20:41:40.428Z,21.90
2017-08-24T20:44:09.356Z,21.80
2017-08-24T20:46:38.308Z,21.80
2017-08-24T20:49:07.263Z,21.70
2017-08-24T20:51:36.324Z,21.60
2017-08-24T20:54:05.242Z,21.50
2017-08-24T20:56:35.019Z,21.40
2017-08-24T20:59:03.975Z,21.40
2017-08-24T21:01:32.923Z,21.30
2017-08-24T21:04:01.904Z,21.20
2017-08-24T21:06:31.117Z,21.20
2017-08-24T21:09:00.747Z,21.10
2017-08-24T21:11:30.194Z,21.10
2017-08-24T21:14:00.094Z,21.10
2017-08-24T21:16:29.192Z,21.10
2017-08-24T21:18:58.383Z,21.10
2017-08-24T21:21:27.387Z,21.00
2017-08-24T21:23:57.013Z,20.90
2017-08-24T21:26:26.104Z,20.90
2017-08-24T21:28:55.616Z,20.90
2017-08-24T21:31:25.058Z,20.90
2017-08-24T21:33:55.061Z,20.90
2017-08-24T21:36:24.313Z,20.90
2017-08-24T21:38:53.742Z,20.80
2017-08-24T21:41:23.066Z,20.80
2017-08-24T21:43:52.603Z,20.70
2017-08-24T21:46:21.997Z,20.70
2017-08-24T21:48:51.228Z,20.70
2017-08-24T21:51:20.385Z,20.60
2017-08-24T21:53:49.579Z,20.50
2017-08-24T21:56:19.137Z,20.40
2017-08-24T21:58:48.232Z,20.30
2017-08-24T22:01:17.847Z,20.30
2017-08-24T22:03:47.357Z,20.30
2017-08-24T22:06:17.563Z,20.20
2017-08-24T22:08:46.625Z,20.20
2017-08-24T22:11:15.739Z,20.20
2017-08-24T22:13:44.700Z,20.20
2017-08-24T22:16:14.796Z,20.20
2017-08-24T22:18:44.228Z,20.20
2017-08-24T22:21:13.208Z,20.20
2017-08-24T22:23:42.681Z,20.30
2017-08-24T22:26:11.933Z,20.30
2017-08-24T22:28:41.433Z,20.20
2017-08-24T22:31:10.801Z,20.20
2017-08-24T22:33:41.979Z,20.20
2017-08-24T22:36:12.103Z,20.20
2017-08-24T22:38:41.318Z,20.20
2017-08-24T22:41:10.601Z,20.30
2017-08-24T22:43:40.100Z,20.30
2017-08-24T22:46:09.332Z,20.20
2017-08-24T22:48:38.704Z,20.20
2017-08-24T22:51:08.336Z,20.10
2017-08-24T22:53:43.027Z,20.10
2017-08-24T22:59:27.885Z,20.00
2017-08-24T23:02:02.808Z,20.00
2017-08-24T23:04:31.928Z,19.90
2017-08-24T23:07:00.907Z,19.80
2017-08-24T23:09:29.980Z,19.80
2017-08-24T23:11:58.914Z,19.80
2017-08-24T23:14:27.887Z,19.70
2017-08-24T23:16:57.986Z,19.70
2017-08-24T23:19:26.936Z,19.60
2017-08-24T23:21:56.182Z,19.50
2017-08-24T23:24:25.447Z,19.50
2017-08-24T23:26:54.488Z,19.50
2017-08-24T23:29:23.655Z,19.40
2017-08-24T23:31:52.574Z,19.40
2017-08-24T23:34:21.518Z,19.40
2017-08-24T23:36:50.482Z,19.30
2017-08-24T23:39:19.456Z,19.30
2017-08-24T23:41:48.483Z,19.20
2017-08-24T23:44:17.495Z,19.20
2017-08-24T23:46:46.616Z,19.20
2017-08-24T23:49:15.693Z,19.20
2017-08-24T23:51:44.636Z,19.20
2017-08-24T23:54:13.615Z,19.10
2017-08-24T23:56:42.704Z,19.10
2017-08-24T23:59:11.639Z,19.10
